Terminal Aerodrome Forecast
Issued by NWS Wilmington, NC

Home | Current Version | Previous Version | Text Only | Print | Product List | Glossary On
Versions: 1 2 3 4 5 6 7 8 9 10 11 12 13 14 15
061
FTUS42 KILM 230538
TAFFLO
TAF
KFLO 230538Z 2306/2406 20005KT P6SM FEW150 SCT250
     FM231500 24005KT P6SM SCT040 SCT250 PROB30 2319/2322 P6SM TS
      SCT030 BKN040CB
     FM232300 18005KT P6SM FEW050 SCT250=

USA.gov is the U.S. government's official web portal to all federal, state and local government web resources and services.